Elizabeth, Minnesota
Current Conditions -  °F | °C
As of 7:54 AM on Thursday 30 Oct 2014 (Local Time) from KFFM Reporting Station
Drizzle Drizzle  
Wind Chill: 39°   Ceiling: 2900
Heat Index: 39°   Visibility: 7mi
Dew Point: 37°   Wind: 0mph
Humidity: 93%   Direction: NA
Pressure: 30.07"   Gusts: NA
Location:  46.38°N, 96.13°W
Report Text: KFFM 301254Z AUTO 00000KT 7SM -DZ OVC029 04/03 A3007 RMK AO2
Loading
Personal Weather Stations






























Interactive Weather Map
Tropical Storm Tracking
New forecast layout! Learn more

10-Day Weather Forecast

Advertisements
Track Severe Weather on mobile